Terminal Aerodrome Forecast
Issued by NWS Wilmington, NC

Home | Current Version | Previous Version | Text Only | Print | Product List | Glossary On
Versions: 1 2 3 4 5 6 7 8 9 10 11 12 13 14 15 16 17 18 19 20 21 22 23 24 25 26 27 28 29
000
FTUS42 KILM 041500 AAA
TAFILM
TAF AMD
KILM 041537Z 0416/0512 22015G24KT P6SM BKN015
     FM041800 22013G22KT P6SM SCT015 BKN025
     FM050100 21010KT 4SM BR BKN004
     FM050400 21009KT 1/2SM FG BKN003=

USA.gov is the U.S. government's official web portal to all federal, state and local government web resources and services.